Time;durP1;ratioP1;P1;durP2;ratioP2;P2;SDS_P1;SDS_P2;PMS_P1;PMS_P2;Temp;Humidity;BMP_temperature;BMP_pressure;BME280_temperature;BME280_humidity;BME280_pressure;Samples;Min_cycle;Max_cycle;Signal;HPM_P1;HPM_P2
2021/04/25 00:00:42;;;;;;;12.73;6.80;;;;;;;29.95;61.90;100964.06;5014331;28;69948;-38
2021/04/25 00:03:12;;;;;;;8.82;6.90;;;;;;;29.98;62.11;100969.91;5012751;28;65675;-38
2021/04/25 00:05:41;;;;;;;7.97;6.90;;;;;;;30.00;62.14;100967.78;5001814;28;70088;-37
2021/04/25 00:08:11;;;;;;;12.90;7.43;;;;;;;30.07;62.40;100973.19;5009973;28;65379;-38
2021/04/25 00:10:42;;;;;;;8.02;6.72;;;;;;;30.10;62.26;100982.78;4997682;28;69065;-38
2021/04/25 00:13:12;;;;;;;9.73;6.88;;;;;;;30.12;62.73;100978.81;4996384;28;66602;-37
2021/04/25 00:15:41;;;;;;;7.43;6.63;;;;;;;30.18;62.71;100986.06;5001217;28;69995;-36
2021/04/25 00:18:11;;;;;;;20.80;6.75;;;;;;;30.17;63.40;100989.84;5012851;28;66190;-37
2021/04/25 00:20:41;;;;;;;12.88;6.78;;;;;;;30.24;62.85;101001.47;5007880;28;69056;-35
2021/04/25 00:23:11;;;;;;;12.57;7.25;;;;;;;30.22;62.47;100998.16;5000088;28;65367;-36
2021/04/25 00:25:40;;;;;;;9.07;7.28;;;;;;;30.27;63.13;101006.47;5012230;28;70753;-35
2021/04/25 00:28:10;;;;;;;11.55;6.80;;;;;;;30.27;63.52;101011.03;5017599;28;66534;-36
2021/04/25 00:30:39;;;;;;;14.30;7.10;;;;;;;30.29;63.62;101022.50;5005656;28;69186;-36
2021/04/25 00:33:09;;;;;;;13.88;7.43;;;;;;;30.32;63.79;101023.94;5014034;28;65307;-38
2021/04/25 00:35:39;;;;;;;13.25;7.28;;;;;;;30.31;63.68;101022.28;4999088;28;69654;-37
2021/04/25 00:38:09;;;;;;;10.27;6.38;;;;;;;30.33;63.80;101026.44;5001584;28;65187;-37
2021/04/25 00:40:39;;;;;;;11.30;6.68;;;;;;;30.37;63.32;101034.94;5013259;28;70390;-37
2021/04/25 00:43:08;;;;;;;17.02;6.53;;;;;;;30.45;63.52;101043.69;5008028;28;66116;-38
2021/04/25 00:45:45;;;;;;;12.18;6.25;;;;;;;30.47;63.30;101044.28;5000723;28;69166;-37
2021/04/25 00:48:14;;;;;;;10.02;5.90;;;;;;;30.50;63.54;101043.03;5000959;28;66548;-37
2021/04/25 00:50:44;;;;;;;13.27;7.07;;;;;;;30.61;63.04;101045.06;5014443;28;69819;-38
2021/04/25 00:53:14;;;;;;;13.75;6.22;;;;;;;30.68;62.74;101043.16;5003403;28;65375;-37
2021/04/25 00:55:47;;;;;;;19.80;5.97;;;;;;;30.67;62.31;101030.69;4997528;28;69720;-37
2021/04/25 00:58:17;;;;;;;8.13;6.30;;;;;;;30.85;62.37;101038.13;5011517;28;65265;-37
2021/04/25 01:00:47;;;;;;;14.20;6.55;;;;;;;30.88;62.17;101045.81;4998798;28;69263;-37
2021/04/25 01:03:20;;;;;;;11.02;5.45;;;;;;;30.92;62.09;101048.91;5001220;28;66232;-37
2021/04/25 01:05:50;;;;;;;9.25;5.70;;;;;;;30.97;62.11;101059.91;5005818;28;69939;-37
2021/04/25 01:08:20;;;;;;;6.07;5.47;;;;;;;31.06;62.24;101055.91;5007984;28;65308;-38
2021/04/25 01:10:50;;;;;;;14.32;5.85;;;;;;;31.05;61.95;101065.09;5019592;28;70282;-36
2021/04/25 01:13:20;;;;;;;10.38;6.22;;;;;;;31.12;62.00;101068.59;5005084;28;66187;-37
2021/04/25 01:15:50;;;;;;;8.73;6.38;;;;;;;31.12;61.77;101067.75;5018541;28;69300;-37
2021/04/25 01:18:20;;;;;;;9.50;6.72;;;;;;;31.16;61.90;101064.41;4998524;28;65812;-37
2021/04/25 01:20:58;;;;;;;6.68;6.07;;;;;;;31.05;62.00;101059.66;5010006;28;70121;-38
2021/04/25 01:23:28;;;;;;;17.98;7.47;;;;;;;31.06;63.20;101069.44;5005525;28;65356;-40
2021/04/25 01:26:03;;;;;;;14.10;7.20;;;;;;;31.10;62.39;101076.13;5010360;28;71006;-38
2021/04/25 01:28:34;;;;;;;9.38;6.05;;;;;;;31.05;62.85;101067.81;4996294;28;66132;-39
2021/04/25 01:31:04;;;;;;;11.45;6.38;;;;;;;31.05;62.40;101072.38;5000691;28;70116;-38
2021/04/25 01:33:35;;;;;;;13.85;6.88;;;;;;;31.01;62.64;101066.59;5011037;28;65991;-39
2021/04/25 01:36:06;;;;;;;9.63;5.90;;;;;;;31.02;62.85;101068.22;5004820;28;68768;-38
2021/04/25 01:38:35;;;;;;;7.07;5.32;;;;;;;31.06;62.73;101063.19;5015873;28;66027;-36
2021/04/25 01:41:05;;;;;;;8.45;4.95;;;;;;;31.05;62.98;101067.81;5002975;28;69166;-36
2021/04/25 01:43:35;;;;;;;6.90;6.20;;;;;;;31.07;62.90;101059.47;5004555;28;65314;-37
2021/04/25 01:46:04;;;;;;;11.65;6.75;;;;;;;31.12;62.93;101065.03;5013585;28;71073;-37
2021/04/25 01:48:34;;;;;;;12.98;6.35;;;;;;;31.13;61.83;101064.00;5005345;28;66168;-37
2021/04/25 01:51:04;;;;;;;7.90;6.20;;;;;;;31.18;61.77;101064.19;4997432;28;69934;-38
2021/04/25 01:53:34;;;;;;;12.23;6.22;;;;;;;31.19;61.83;101063.13;4995911;28;65051;-37
2021/04/25 01:56:04;;;;;;;6.95;6.25;;;;;;;31.20;60.76;101059.38;4998564;28;70961;-38
2021/04/25 01:58:34;;;;;;;6.72;5.90;;;;;;;31.28;61.37;101071.81;5008415;28;65206;-38
2021/04/25 02:01:05;;;;;;;14.50;5.75;;;;;;;31.39;61.06;101068.44;5004060;28;70151;-38
2021/04/25 02:03:35;;;;;;;7.50;5.82;;;;;;;31.43;60.43;101068.84;5001852;28;66390;-38
2021/04/25 02:06:05;;;;;;;8.43;5.55;;;;;;;31.50;60.86;101062.31;5003985;28;69970;-37
2021/04/25 02:08:34;;;;;;;10.77;5.60;;;;;;;31.55;60.34;101056.25;5002727;28;65985;-38
2021/04/25 02:11:05;;;;;;;9.82;6.20;;;;;;;31.60;60.04;101051.81;5005792;28;69885;-39
2021/04/25 02:13:34;;;;;;;12.93;5.60;;;;;;;31.66;60.62;101046.56;5003463;28;63934;-38
2021/04/25 02:16:05;;;;;;;9.48;5.63;;;;;;;31.69;60.47;101051.53;5012498;28;69029;-38
2021/04/25 02:18:34;;;;;;;6.85;5.55;;;;;;;31.73;60.14;101047.31;5008435;28;65770;-38
2021/04/25 02:21:04;;;;;;;6.50;5.30;;;;;;;31.76;59.78;101041.44;5000749;28;70627;-38
2021/04/25 02:23:34;;;;;;;6.95;5.55;;;;;;;31.79;60.12;101035.59;5000094;28;65993;-38
2021/04/25 02:26:04;;;;;;;9.48;5.03;;;;;;;31.81;59.49;101034.28;5017479;28;69075;-38
2021/04/25 02:28:33;;;;;;;8.82;5.80;;;;;;;31.86;59.70;101028.22;5003325;28;65218;-38
2021/04/25 02:31:03;;;;;;;8.10;4.75;;;;;;;31.90;59.53;101026.72;4997833;28;69238;-38
2021/04/25 02:33:32;;;;;;;7.50;5.05;;;;;;;31.93;59.64;101020.88;4999157;28;65220;-39
2021/04/25 02:36:03;;;;;;;6.20;5.32;;;;;;;31.98;59.56;101022.91;4986298;28;70079;-37
2021/04/25 02:38:33;;;;;;;5.95;5.15;;;;;;;32.00;59.01;101024.34;5004686;28;66815;-38
2021/04/25 02:41:03;;;;;;;6.20;4.90;;;;;;;32.04;59.38;101011.19;5012176;28;69818;-37
2021/04/25 02:43:33;;;;;;;4.85;4.50;;;;;;;32.05;59.10;101012.81;5000246;28;65099;-38
2021/04/25 02:46:03;;;;;;;6.40;5.28;;;;;;;32.08;59.11;101006.13;5015930;28;69194;-37
2021/04/25 02:48:32;;;;;;;5.07;4.57;;;;;;;32.11;58.63;101005.66;5016506;28;65123;-37
2021/04/25 02:51:02;;;;;;;10.60;4.70;;;;;;;32.11;58.95;101006.50;5001444;28;69337;-37
2021/04/25 02:53:32;;;;;;;5.05;4.32;;;;;;;32.16;58.62;101017.50;5009004;28;65807;-39
2021/04/25 02:56:02;;;;;;;4.97;4.65;;;;;;;32.21;58.85;101003.25;5002430;28;69246;-38
2021/04/25 02:58:32;;;;;;;9.15;4.47;;;;;;;32.23;58.63;101004.69;5001929;28;65916;-38
2021/04/25 03:01:02;;;;;;;4.90;4.40;;;;;;;32.27;58.30;100994.22;5001824;28;69925;-37
2021/04/25 03:03:32;;;;;;;5.07;4.63;;;;;;;32.30;58.28;100999.19;5003882;28;66093;-39
2021/04/25 03:06:02;;;;;;;5.15;4.60;;;;;;;32.32;57.54;101002.50;5020568;28;69892;-38
2021/04/25 03:08:32;;;;;;;5.30;4.43;;;;;;;32.35;58.24;101001.22;5018061;28;65172;-38
2021/04/25 03:11:02;;;;;;;7.60;4.63;;;;;;;32.37;57.95;100993.66;5014171;28;69838;-38
2021/04/25 03:13:32;;;;;;;4.93;4.20;;;;;;;32.38;57.52;100990.72;5006553;28;65291;-38
2021/04/25 03:16:02;;;;;;;7.32;4.68;;;;;;;32.42;57.43;100991.91;4998963;28;70003;-38
2021/04/25 03:18:31;;;;;;;6.70;3.97;;;;;;;32.45;57.63;100991.47;5007547;28;65231;-38
2021/04/25 03:21:01;;;;;;;7.97;4.20;;;;;;;32.45;57.50;100991.47;5006393;28;69658;-38
2021/04/25 03:23:32;;;;;;;4.65;4.30;;;;;;;32.49;57.06;100992.69;4999447;28;65048;-38
2021/04/25 03:26:02;;;;;;;5.82;4.40;;;;;;;32.51;57.55;101000.59;5001502;28;69865;-38
2021/04/25 03:28:31;;;;;;;5.15;3.95;;;;;;;32.52;57.47;100986.00;5000794;28;65564;-36
2021/04/25 03:31:01;;;;;;;6.75;3.83;;;;;;;32.31;56.54;100989.97;4999712;28;69423;-36
2021/04/25 03:33:30;;;;;;;5.55;4.00;;;;;;;32.15;55.49;100982.44;4996235;28;65094;-35
2021/04/25 03:36:00;;;;;;;11.38;4.20;;;;;;;31.99;55.28;100983.88;5004531;28;69810;-35
2021/04/25 03:38:30;;;;;;;9.25;3.90;;;;;;;31.79;54.20;100975.94;5019694;28;66070;-36
2021/04/25 03:40:59;;;;;;;5.60;4.13;;;;;;;31.64;53.33;100978.97;5015803;28;69784;-34
2021/04/25 03:43:29;;;;;;;16.02;4.20;;;;;;;31.54;53.24;100979.50;5011626;28;66339;-35
2021/04/25 03:45:58;;;;;;;9.38;3.85;;;;;;;31.52;52.78;100981.59;4997177;28;70254;-36
2021/04/25 03:48:28;;;;;;;15.13;3.97;;;;;;;31.43;51.69;100972.09;5016464;28;66192;-36
2021/04/25 03:50:58;;;;;;;8.45;3.78;;;;;;;31.37;51.95;100967.53;5008789;28;69954;-36
2021/04/25 03:53:28;;;;;;;16.65;4.85;;;;;;;31.36;51.82;100965.88;5000861;28;66966;-36
2021/04/25 03:55:57;;;;;;;16.15;4.28;;;;;;;31.31;51.47;100971.09;5012910;28;70750;-36
2021/04/25 03:58:27;;;;;;;14.45;3.88;;;;;;;31.30;51.27;100966.75;5001264;28;65970;-37
2021/04/25 04:00:56;;;;;;;6.13;3.70;;;;;;;31.24;50.16;100963.03;5013132;28;69229;-33
2021/04/25 04:03:26;;;;;;;13.80;3.97;;;;;;;31.19;50.04;100962.88;5010346;28;66009;-36
2021/04/25 04:05:56;;;;;;;18.63;4.28;;;;;;;31.15;51.01;100951.66;5016575;28;70343;-34
2021/04/25 04:08:26;;;;;;;11.77;4.57;;;;;;;31.24;52.69;100945.97;5013560;28;66759;-34
2021/04/25 04:10:56;;;;;;;17.08;5.18;;;;;;;31.24;52.82;100946.78;5007232;28;69240;-36
2021/04/25 04:13:26;;;;;;;25.58;5.40;;;;;;;31.29;53.00;100943.41;5017969;28;64523;-37
2021/04/25 04:15:56;;;;;;;22.92;4.35;;;;;;;31.35;53.62;100937.09;5012853;28;70219;-38
2021/04/25 04:18:26;;;;;;;13.15;4.95;;;;;;;31.35;53.18;100945.22;5007444;28;65356;-37
2021/04/25 04:20:56;;;;;;;10.38;4.50;;;;;;;31.32;53.54;100932.13;5007407;28;70320;-37
2021/04/25 04:23:27;;;;;;;18.88;4.82;;;;;;;31.36;52.70;100941.50;5007258;28;67648;-36
2021/04/25 04:25:57;;;;;;;15.48;4.75;;;;;;;31.32;52.13;100942.97;5000636;28;68672;-35
2021/04/25 04:28:27;;;;;;;7.18;3.95;;;;;;;31.28;51.10;100929.00;5011972;28;66349;-37
2021/04/25 04:30:57;;;;;;;8.48;3.92;;;;;;;31.22;50.70;100927.19;5016966;28;69127;-36
2021/04/25 04:33:26;;;;;;;14.20;4.40;;;;;;;31.29;52.41;100927.16;5009260;28;65939;-38
2021/04/25 04:35:56;;;;;;;5.28;3.85;;;;;;;31.29;52.67;100922.56;5004930;28;70755;-38
2021/04/25 04:38:26;;;;;;;6.38;3.83;;;;;;;31.29;52.78;100919.03;5009370;28;67098;-37
2021/04/25 04:40:57;;;;;;;5.07;4.43;;;;;;;31.23;53.98;100900.91;5005412;28;69991;-35
2021/04/25 04:43:27;;;;;;;6.28;4.18;;;;;;;31.28;53.68;100909.22;5004737;28;65876;-36
2021/04/25 04:45:57;;;;;;;11.65;4.47;;;;;;;31.29;53.43;100906.28;4998113;28;70008;-35
2021/04/25 04:48:27;;;;;;;5.75;4.47;;;;;;;31.30;52.04;100901.69;4999562;28;66199;-35
2021/04/25 04:50:56;;;;;;;8.35;4.18;;;;;;;31.31;51.98;100897.94;5004355;28;69824;-36
2021/04/25 04:53:26;;;;;;;10.82;4.22;;;;;;;31.30;51.30;100890.84;5007968;28;65390;-36
2021/04/25 04:55:55;;;;;;;5.43;3.67;;;;;;;31.28;50.93;100896.50;5012634;28;69936;-37
2021/04/25 04:58:26;;;;;;;9.38;4.25;;;;;;;31.27;50.61;100897.56;4996382;28;65986;-36
2021/04/25 05:00:56;;;;;;;12.52;4.07;;;;;;;31.26;49.67;100895.06;4996131;28;70558;-35
2021/04/25 05:03:25;;;;;;;5.57;3.53;;;;;;;31.23;50.08;100890.06;4999031;28;65985;-36
2021/04/25 05:05:55;;;;;;;7.90;3.45;;;;;;;31.21;49.66;100881.38;5014467;28;69834;-37
2021/04/25 05:08:25;;;;;;;6.13;3.15;;;;;;;31.24;48.73;100879.03;4991259;28;66865;-35
2021/04/25 05:10:54;;;;;;;6.13;3.92;;;;;;;31.21;48.47;100881.38;4996681;28;69287;-35
2021/04/25 05:13:24;;;;;;;6.18;3.70;;;;;;;31.22;48.33;100869.47;5001157;28;65880;-36
2021/04/25 05:15:54;;;;;;;8.27;3.50;;;;;;;31.20;47.93;100874.25;4997661;28;70488;-35
2021/04/25 05:18:24;;;;;;;3.05;2.85;;;;;;;31.19;47.10;100868.03;5002453;28;65977;-36
2021/04/25 05:20:54;;;;;;;4.97;4.00;;;;;;;31.16;47.54;100863.88;4995784;28;69318;-36
2021/04/25 05:23:24;;;;;;;5.22;2.85;;;;;;;31.20;46.64;100860.72;5002271;28;66707;-35
2021/04/25 05:25:54;;;;;;;4.00;3.60;;;;;;;31.16;46.39;100861.16;4993918;28;69679;-35
2021/04/25 05:28:23;;;;;;;4.22;3.45;;;;;;;31.22;46.48;100856.72;4996943;28;66156;-36
2021/04/25 05:30:53;;;;;;;8.20;4.60;;;;;;;31.26;46.02;100857.09;5008526;28;70480;-35
2021/04/25 05:33:23;;;;;;;8.43;4.72;;;;;;;31.19;45.79;100829.25;4999839;28;66173;-34
2021/04/25 05:35:53;;;;;;;11.85;5.18;;;;;;;31.23;45.67;100836.72;5000804;28;69976;-36
2021/04/25 05:38:23;;;;;;;13.68;4.95;;;;;;;31.24;44.94;100822.13;5013869;28;66506;-36
2021/04/25 05:40:53;;;;;;;5.10;4.68;;;;;;;31.14;44.85;100822.63;5002870;28;70258;-35
2021/04/25 05:43:22;;;;;;;9.52;4.75;;;;;;;31.13;44.65;100810.13;5005602;28;65950;-35
2021/04/25 05:45:52;;;;;;;8.85;4.25;;;;;;;31.13;44.35;100810.13;4998130;28;69927;-36
2021/04/25 05:48:21;;;;;;;7.05;4.40;;;;;;;31.12;44.39;100805.78;5012877;28;65087;-35
2021/04/25 05:50:51;;;;;;;7.88;4.20;;;;;;;31.12;43.88;100791.38;4999833;28;70046;-36
2021/04/25 05:53:22;;;;;;;5.10;4.25;;;;;;;31.09;44.17;100794.53;5010678;28;66222;-36
2021/04/25 05:55:52;;;;;;;5.25;4.28;;;;;;;31.13;43.78;100785.75;4995201;28;69793;-36
2021/04/25 05:58:21;;;;;;;6.75;4.40;;;;;;;31.15;44.07;100780.13;4997710;28;66287;-35
2021/04/25 06:00:51;;;;;;;4.95;4.45;;;;;;;31.20;44.56;100779.44;4997790;28;70473;-35
2021/04/25 06:03:21;;;;;;;4.13;3.78;;;;;;;31.25;43.54;100775.00;5013369;28;66034;-35
2021/04/25 06:05:51;;;;;;;5.32;4.80;;;;;;;31.22;43.92;100769.19;4999370;28;69368;-36
2021/04/25 06:08:21;;;;;;;6.68;4.80;;;;;;;31.31;43.48;100768.66;5000898;28;65800;-34
2021/04/25 06:10:50;;;;;;;4.55;3.88;;;;;;;31.35;43.75;100763.63;5008624;28;70115;-36
2021/04/25 06:13:20;;;;;;;5.10;4.55;;;;;;;31.37;42.81;100759.69;5005873;28;66329;-36
2021/04/25 06:15:49;;;;;;;4.60;4.20;;;;;;;31.34;42.72;100751.97;5006842;28;71323;-35
2021/04/25 06:18:19;;;;;;;4.53;4.18;;;;;;;31.35;43.11;100753.63;5015218;28;66170;-37
2021/04/25 06:20:49;;;;;;;9.20;4.30;;;;;;;31.35;43.54;100741.94;5021262;28;68609;-36
2021/04/25 06:23:19;;;;;;;4.47;4.07;;;;;;;31.41;43.12;100732.94;4999942;28;66553;-36
2021/04/25 06:25:49;;;;;;;4.65;3.55;;;;;;;31.48;43.06;100719.28;5013474;28;69384;-35
2021/04/25 06:28:18;;;;;;;6.55;4.07;;;;;;;31.47;42.54;100712.22;4995965;28;64973;-35
2021/04/25 06:30:48;;;;;;;5.13;3.80;;;;;;;31.53;42.34;100716.72;5000239;28;70728;-36
2021/04/25 06:33:30;;;;;;;7.68;4.30;;;;;;;31.56;42.59;100713.56;4999719;28;66079;-36
2021/04/25 06:35:59;;;;;;;6.18;4.70;;;;;;;31.61;41.83;100714.53;5009205;28;69892;-36
2021/04/25 06:38:29;;;;;;;4.43;4.07;;;;;;;31.65;41.46;100701.34;5002176;28;64900;-35
2021/04/25 06:40:59;;;;;;;5.60;4.65;;;;;;;31.66;41.66;100694.03;5001647;28;69678;-38
2021/04/25 06:43:31;;;;;;;6.50;4.18;;;;;;;31.64;42.72;100696.13;5011770;28;66256;-35
2021/04/25 06:46:02;;;;;;;4.60;4.25;;;;;;;31.62;42.75;100693.66;5009871;28;69309;-35
2021/04/25 06:48:32;;;;;;;15.75;4.22;;;;;;;31.64;42.37;100690.72;5006439;28;66490;-35
2021/04/25 06:51:05;;;;;;;4.32;4.03;;;;;;;31.67;42.02;100690.25;5001392;28;70373;-34
2021/04/25 06:53:36;;;;;;;6.85;4.05;;;;;;;31.70;42.42;100673.53;5005578;28;66719;-36
2021/04/25 06:56:05;;;;;;;3.55;3.33;;;;;;;31.75;42.15;100681.78;5003539;28;69924;-36
2021/04/25 06:58:35;;;;;;;4.07;3.50;;;;;;;31.78;41.99;100670.47;4997000;28;65394;-36
2021/04/25 07:01:04;;;;;;;13.38;3.90;;;;;;;31.79;41.66;100677.59;5003198;28;69844;-35
2021/04/25 07:03:35;;;;;;;5.03;3.60;;;;;;;31.89;40.86;100661.53;5014244;28;64267;-35
2021/04/25 07:06:20;;;;;;;16.90;3.55;;;;;;;31.86;41.03;100656.59;5082886;27;1813149;-37
2021/04/25 07:08:51;;;;;;;8.25;3.70;;;;;;;31.95;41.13;100659.81;5128071;27;69791;-38
2021/04/25 07:11:20;;;;;;;5.45;2.97;;;;;;;31.94;40.94;100659.00;5122664;27;66092;-38
2021/04/25 07:13:50;;;;;;;3.72;3.40;;;;;;;31.91;40.80;100643.19;5116176;27;70339;-38
2021/04/25 07:16:21;;;;;;;9.00;3.65;;;;;;;31.96;40.94;100651.47;5119739;27;66893;-38
2021/04/25 07:18:51;;;;;;;4.15;3.42;;;;;;;31.96;40.52;100651.47;5125508;27;70384;-38
2021/04/25 07:21:21;;;;;;;10.35;3.13;;;;;;;31.98;40.31;100649.34;5132752;27;65918;-38
2021/04/25 07:23:51;;;;;;;4.25;3.22;;;;;;;32.04;40.46;100645.69;5135506;27;69993;-37
2021/04/25 07:26:21;;;;;;;5.07;2.88;;;;;;;32.02;40.32;100639.66;5134892;27;65924;-37
2021/04/25 07:28:51;;;;;;;6.75;3.38;;;;;;;32.09;40.17;100644.16;5135657;27;69912;-37
2021/04/25 07:31:21;;;;;;;3.67;3.30;;;;;;;32.16;40.28;100636.75;5133033;27;65841;-38
2021/04/25 07:33:50;;;;;;;4.72;3.15;;;;;;;32.20;40.23;100629.78;5098233;27;69912;-38
2021/04/25 07:36:30;;;;;;;5.25;3.22;;;;;;;32.21;39.85;100626.00;5125339;27;65928;-38
2021/04/25 07:39:01;;;;;;;8.20;3.15;;;;;;;32.25;40.29;100619.84;5129841;27;70733;-39
2021/04/25 07:41:31;;;;;;;6.53;3.03;;;;;;;32.27;39.67;100614.22;5130315;27;65954;-38
2021/04/25 07:44:00;;;;;;;3.75;3.25;;;;;;;32.30;39.82;100618.34;5132708;27;70039;-37
2021/04/25 07:46:30;;;;;;;5.18;3.25;;;;;;;32.37;39.94;100614.41;5134695;27;65152;-38
2021/04/25 07:49:00;;;;;;;3.40;3.08;;;;;;;32.40;39.29;100608.53;5132078;27;69469;-38
2021/04/25 07:51:29;;;;;;;4.15;2.92;;;;;;;32.42;39.25;100603.69;5132629;27;66056;-38
2021/04/25 07:54:00;;;;;;;4.80;2.47;;;;;;;32.43;39.01;100609.94;5126102;27;69833;-38
2021/04/25 07:56:29;;;;;;;3.28;2.92;;;;;;;32.45;38.61;100605.09;5128978;27;65229;-38
2021/04/25 07:59:07;;;;;;;3.15;2.85;;;;;;;32.46;38.98;100588.63;5105522;27;69588;-38
2021/04/25 08:01:40;;;;;;;3.08;2.35;;;;;;;32.46;39.21;100576.94;5111694;27;66651;-38
2021/04/25 08:04:15;;;;;;;5.78;3.30;;;;;;;32.45;39.62;100570.63;5110951;27;70415;-38
2021/04/25 08:06:45;;;;;;;8.32;3.20;;;;;;;32.56;39.70;100570.88;5113059;27;65410;-41
2021/04/25 08:09:15;;;;;;;4.28;3.00;;;;;;;32.84;40.92;100578.25;5105053;27;70751;-39
2021/04/25 08:11:45;;;;;;;4.50;3.95;;;;;;;33.09;47.74;100572.53;5111270;27;66730;-39
2021/04/25 08:14:15;;;;;;;5.35;4.85;;;;;;;33.31;49.25;100580.81;5110084;27;70366;-41
2021/04/25 08:16:45;;;;;;;10.48;5.82;;;;;;;33.53;49.42;100579.06;5100732;27;65939;-40
2021/04/25 08:19:15;;;;;;;8.93;5.72;;;;;;;33.64;50.35;100569.19;5098430;27;69893;-40
2021/04/25 08:21:45;;;;;;;11.07;5.30;;;;;;;33.73;50.04;100573.13;5093443;27;65955;-39
2021/04/25 08:24:14;;;;;;;13.18;5.80;;;;;;;33.90;50.16;100569.59;5099885;27;70082;-39
2021/04/25 08:26:44;;;;;;;19.35;4.93;;;;;;;34.01;49.57;100568.66;5088534;27;65948;-40
2021/04/25 08:29:14;;;;;;;8.48;4.97;;;;;;;34.05;50.12;100567.16;5088835;27;70097;-39
2021/04/25 08:31:44;;;;;;;6.53;5.35;;;;;;;34.08;50.42;100563.91;5099753;27;65950;-39
2021/04/25 08:34:19;;;;;;;11.35;5.05;;;;;;;34.10;51.15;100561.78;5095164;27;70000;-41
2021/04/25 08:36:54;;;;;;;18.10;5.50;;;;;;;34.21;50.63;100562.72;5096807;27;66676;-40
2021/04/25 08:39:24;;;;;;;19.80;5.68;;;;;;;34.24;51.19;100557.63;5088030;27;70166;-39
2021/04/25 08:41:55;;;;;;;24.23;6.57;;;;;;;34.19;50.30;100549.38;5096467;27;66064;-41
2021/04/25 08:44:25;;;;;;;19.37;6.20;;;;;;;34.34;50.58;100550.66;5096511;27;70100;-41
2021/04/25 08:46:55;;;;;;;13.93;5.60;;;;;;;34.34;50.97;100542.50;5098059;27;65985;-41
2021/04/25 08:49:26;;;;;;;17.38;6.18;;;;;;;34.42;50.19;100544.78;5096399;27;70060;-40
2021/04/25 08:51:56;;;;;;;12.07;5.77;;;;;;;34.51;50.26;100550.59;5097727;27;66009;-38
2021/04/25 08:54:31;;;;;;;5.57;5.07;;;;;;;34.46;50.93;100564.97;5099459;27;69291;-38
2021/04/25 08:57:01;;;;;;;10.13;4.68;;;;;;;34.48;50.73;100551.94;5087153;27;65783;-38
2021/04/25 08:59:31;;;;;;;14.18;7.13;;;;;;;34.52;49.74;100553.09;5093306;27;69979;-37
2021/04/25 09:02:00;;;;;;;22.73;18.23;;;;;;;34.59;50.61;100551.00;5097477;27;66179;-39
2021/04/25 09:04:30;;;;;;;40.05;25.55;;;;;;;34.61;50.97;100546.16;5096503;27;69948;-38
2021/04/25 09:07:13;;;;;;;65.60;38.83;;;;;;;34.47;51.27;100528.50;5098420;27;66439;-39
2021/04/25 09:09:47;;;;;;;99.40;55.58;;;;;;;34.62;50.63;100546.97;5088841;27;70307;-39
2021/04/25 09:12:37;;;;;;;125.80;70.13;;;;;;;34.56;50.44;100531.63;5094497;27;65912;-37
2021/04/25 09:15:13;;;;;;;109.28;57.80;;;;;;;34.66;50.22;100548.94;5089222;27;69218;-37
2021/04/25 09:18:01;;;;;;;82.50;41.05;;;;;;;34.71;49.84;100550.88;5098902;27;65998;-37
2021/04/25 09:20:41;;;;;;;74.18;34.78;;;;;;;34.75;50.19;100551.22;5098942;27;70049;-37
2021/04/25 09:23:13;;;;;;;65.68;29.55;;;;;;;34.75;50.14;100551.22;5094978;27;66036;-38
2021/04/25 09:26:01;;;;;;;52.42;24.08;;;;;;;34.68;50.46;100554.94;5093095;27;70650;-36
2021/04/25 09:28:31;;;;;;;44.90;19.38;;;;;;;34.66;50.47;100554.38;5088818;27;65287;-36
2021/04/25 09:31:07;;;;;;;66.03;33.22;;;;;;;34.58;51.70;100543.94;5097278;27;69903;-38
2021/04/25 09:33:56;;;;;;;81.63;36.30;;;;;;;34.54;52.51;100552.81;5098605;27;66502;-39
2021/04/25 09:36:30;;;;;;;67.78;32.63;;;;;;;34.41;52.86;100556.75;5097507;27;69636;-39
2021/04/25 09:39:15;;;;;;;43.10;25.15;;;;;;;34.30;53.10;100554.94;5095060;27;66637;-40
2021/04/25 09:41:46;;;;;;;54.88;24.13;;;;;;;34.28;53.27;100555.22;5096400;27;69866;-40
2021/04/25 09:44:37;;;;;;;46.95;23.02;;;;;;;34.11;54.31;100557.97;5091011;27;65298;-37
2021/04/25 09:47:06;;;;;;;43.78;23.02;;;;;;;34.21;53.73;100574.47;5094111;27;69541;-37
2021/04/25 09:49:40;;;;;;;47.00;23.70;;;;;;;34.22;53.80;100587.00;5091898;27;65096;-36
2021/04/25 09:52:14;;;;;;;34.35;21.45;;;;;;;34.22;54.04;100581.53;5094161;27;69917;-37
2021/04/25 09:54:43;;;;;;;;;;;;;;;34.05;54.97;100586.19;5088537;27;66060;-38
2021/04/25 09:57:31;;;;;;;36.58;20.17;;;;;;;33.99;54.96;100581.69;5086680;27;69138;-37
2021/04/25 10:00:01;;;;;;;35.88;19.45;;;;;;;34.16;54.37;100600.78;5098437;27;65409;-37
2021/04/25 10:02:52;;;;;;;43.90;19.25;;;;;;;34.13;54.53;100604.84;5093846;27;70644;-36
2021/04/25 10:05:24;;;;;;;30.88;18.13;;;;;;;34.14;54.66;100609.19;5095531;27;66628;-36
2021/04/25 10:07:55;;;;;;;34.57;18.37;;;;;;;34.18;54.92;100615.78;5095861;27;71290;-38
2021/04/25 10:10:25;;;;;;;34.22;18.63;;;;;;;34.45;54.06;100639.59;5092464;27;65379;-37
2021/04/25 10:12:56;;;;;;;39.83;18.25;;;;;;;34.59;53.56;100653.69;5089938;27;69599;-37
2021/04/25 10:15:25;;;;;;;29.35;17.83;;;;;;;34.69;53.20;100657.41;5098426;27;66214;-38
2021/04/25 10:17:55;;;;;;;28.70;17.35;;;;;;;34.78;52.84;100665.94;5095570;27;69325;-37
2021/04/25 10:20:25;;;;;;;25.25;16.40;;;;;;;34.86;52.83;100672.88;5097856;27;66212;-38
2021/04/25 10:22:55;;;;;;;28.92;17.33;;;;;;;34.88;52.60;100678.88;5086590;27;69541;-37
2021/04/25 10:25:36;;;;;;;30.50;16.70;;;;;;;34.81;52.29;100676.34;5098425;27;65324;-36
2021/04/25 10:28:14;;;;;;;21.33;14.95;;;;;;;34.80;52.01;100690.22;5095940;27;69145;-38
2021/04/25 10:30:46;;;;;;;17.13;12.20;;;;;;;34.58;51.65;100710.09;5092728;27;65960;-39
2021/04/25 10:33:16;;;;;;;16.02;9.65;;;;;;;34.35;51.57;100713.81;5097029;27;69094;-38
2021/04/25 10:35:56;;;;;;;23.05;10.18;;;;;;;34.05;51.58;100692.34;5090727;27;65438;-38
2021/04/25 10:38:38;;;;;;;15.23;9.93;;;;;;;34.05;51.55;100716.84;5090685;27;69968;-37
2021/04/25 10:41:27;;;;;;;10.35;7.95;;;;;;;33.73;51.11;100694.72;5093083;27;65972;-38
2021/04/25 10:44:00;;;;;;;11.02;7.65;;;;;;;33.89;51.54;100706.72;5091313;27;70004;-38
2021/04/25 10:46:55;;;;;;;9.55;8.18;;;;;;;33.75;51.52;100687.97;5095999;27;65117;-38
2021/04/25 10:49:40;;;;;;;13.70;8.13;;;;;;;33.73;51.54;100690.09;5088949;27;69180;-38
2021/04/25 10:52:29;;;;;;;9.27;8.40;;;;;;;33.69;51.66;100701.75;5096079;27;66985;-38
2021/04/25 10:55:18;;;;;;;11.93;7.15;;;;;;;33.64;51.25;100721.50;5095134;27;69191;-37
2021/04/25 10:57:54;;;;;;;15.90;6.97;;;;;;;33.63;50.78;100728.03;5093261;27;66285;-39
2021/04/25 11:00:33;;;;;;;9.02;7.20;;;;;;;33.55;51.33;100723.78;5098101;27;69442;-37
2021/04/25 11:03:23;;;;;;;24.00;8.05;;;;;;;33.50;51.28;100731.81;5096501;27;65588;-38
2021/04/25 11:05:53;;;;;;;17.95;8.45;;;;;;;33.55;51.63;100714.81;5080880;27;70100;-40
2021/04/25 11:08:32;;;;;;;12.82;8.55;;;;;;;33.49;51.63;100707.56;5092860;27;66353;-36
2021/04/25 11:11:09;;;;;;;10.13;9.02;;;;;;;33.48;51.73;100697.75;5078574;27;70281;-40
2021/04/25 11:13:45;;;;;;;18.33;9.63;;;;;;;33.44;51.67;100707.50;5094784;27;65590;-39
2021/04/25 11:16:16;;;;;;;22.70;8.60;;;;;;;33.40;51.17;100720.72;5094056;27;70234;-39
2021/04/25 11:18:51;;;;;;;27.85;8.77;;;;;;;33.37;51.30;100726.66;5096632;27;65209;-39
2021/04/25 11:24:18;;;;;;;12.13;7.88;;;;;;;33.32;51.54;100724.66;5082532;27;66055;-39
2021/04/25 11:26:51;;;;;;;19.08;7.85;;;;;;;33.29;50.88;100730.59;5092949;27;70231;-39
2021/04/25 11:29:26;;;;;;;11.00;7.43;;;;;;;33.27;51.02;100727.28;5095541;27;65996;-38
2021/04/25 11:32:01;;;;;;;16.38;7.57;;;;;;;33.26;51.46;100724.78;5094849;27;69977;-37
2021/04/25 11:37:08;;;;;;;11.65;7.63;;;;;;;33.12;52.81;100713.34;5097450;27;69883;-37
2021/04/25 11:39:42;;;;;;;9.80;7.85;;;;;;;33.17;53.33;100732.50;5086093;27;66344;-37
2021/04/25 11:42:36;;;;;;;7.97;7.15;;;;;;;33.26;53.80;100741.91;5088883;27;70272;-39
2021/04/25 11:45:17;;;;;;;8.55;7.38;;;;;;;33.10;54.31;100715.50;5087828;27;65371;-37
2021/04/25 11:48:08;;;;;;;23.67;7.68;;;;;;;33.23;53.69;100741.56;5084415;27;70062;-37